sensor_id;sensor_type;location;lat;lon;timestamp;P1;durP1;ratioP1;P2;durP2;ratioP2
78372;SDS011;67656;52.074;4.758;2024-03-17T00:04:46;8.53;;;3.23;;
78372;SDS011;67656;52.074;4.758;2024-03-17T01:19:10;12.70;;;4.30;;
78372;SDS011;67656;52.074;4.758;2024-03-17T01:57:03;9.63;;;3.87;;
78372;SDS011;67656;52.074;4.758;2024-03-17T02:52:19;13.17;;;4.60;;
78372;SDS011;67656;52.074;4.758;2024-03-17T04:08:16;9.13;;;4.20;;
78372;SDS011;67656;52.074;4.758;2024-03-17T06:38:09;13.07;;;5.13;;
78372;SDS011;67656;52.074;4.758;2024-03-17T06:48:46;12.80;;;5.50;;
78372;SDS011;67656;52.074;4.758;2024-03-17T06:53:52;10.23;;;4.90;;
78372;SDS011;67656;52.074;4.758;2024-03-17T06:59:03;13.05;;;5.40;;
78372;SDS011;67656;52.074;4.758;2024-03-17T07:04:04;11.27;;;5.00;;
78372;SDS011;67656;52.074;4.758;2024-03-17T07:09:05;12.68;;;4.90;;
78372;SDS011;67656;52.074;4.758;2024-03-17T07:14:20;14.20;;;6.15;;
78372;SDS011;67656;52.074;4.758;2024-03-17T07:19:23;13.82;;;5.50;;
78372;SDS011;67656;52.074;4.758;2024-03-17T07:24:24;11.27;;;5.38;;
78372;SDS011;67656;52.074;4.758;2024-03-17T07:29:24;11.50;;;5.30;;
78372;SDS011;67656;52.074;4.758;2024-03-17T07:34:30;14.32;;;5.40;;
78372;SDS011;67656;52.074;4.758;2024-03-17T07:39:34;11.93;;;5.05;;
78372;SDS011;67656;52.074;4.758;2024-03-17T07:44:34;14.02;;;6.07;;
78372;SDS011;67656;52.074;4.758;2024-03-17T07:49:35;12.23;;;5.57;;
78372;SDS011;67656;52.074;4.758;2024-03-17T07:54:35;11.40;;;5.35;;
78372;SDS011;67656;52.074;4.758;2024-03-17T07:59:36;13.73;;;6.30;;
78372;SDS011;67656;52.074;4.758;2024-03-17T08:04:36;10.95;;;5.30;;
78372;SDS011;67656;52.074;4.758;2024-03-17T08:09:37;12.63;;;5.60;;
78372;SDS011;67656;52.074;4.758;2024-03-17T08:14:37;12.35;;;5.85;;
78372;SDS011;67656;52.074;4.758;2024-03-17T08:19:38;11.63;;;5.47;;
78372;SDS011;67656;52.074;4.758;2024-03-17T08:24:38;12.20;;;5.25;;
78372;SDS011;67656;52.074;4.758;2024-03-17T08:29:41;12.65;;;5.63;;
78372;SDS011;67656;52.074;4.758;2024-03-17T08:34:45;16.08;;;5.18;;
78372;SDS011;67656;52.074;4.758;2024-03-17T09:04:30;10.43;;;4.88;;
78372;SDS011;67656;52.074;4.758;2024-03-17T09:32:14;10.60;;;4.32;;
78372;SDS011;67656;52.074;4.758;2024-03-17T09:37:23;10.98;;;4.88;;
78372;SDS011;67656;52.074;4.758;2024-03-17T09:42:30;11.32;;;4.78;;
78372;SDS011;67656;52.074;4.758;2024-03-17T09:48:06;10.63;;;4.80;;
78372;SDS011;67656;52.074;4.758;2024-03-17T09:53:09;10.77;;;4.63;;
78372;SDS011;67656;52.074;4.758;2024-03-17T09:58:24;10.43;;;5.28;;
78372;SDS011;67656;52.074;4.758;2024-03-17T10:08:46;11.05;;;5.25;;
78372;SDS011;67656;52.074;4.758;2024-03-17T10:24:30;11.82;;;4.97;;
78372;SDS011;67656;52.074;4.758;2024-03-17T10:29:43;11.57;;;5.10;;
78372;SDS011;67656;52.074;4.758;2024-03-17T10:34:46;11.43;;;5.18;;
78372;SDS011;67656;52.074;4.758;2024-03-17T10:39:47;9.60;;;4.68;;
78372;SDS011;67656;52.074;4.758;2024-03-17T10:44:51;9.75;;;4.82;;
78372;SDS011;67656;52.074;4.758;2024-03-17T10:49:52;10.75;;;4.97;;
78372;SDS011;67656;52.074;4.758;2024-03-17T10:54:54;9.80;;;4.72;;
78372;SDS011;67656;52.074;4.758;2024-03-17T10:59:55;9.88;;;5.18;;
78372;SDS011;67656;52.074;4.758;2024-03-17T11:05:00;10.80;;;4.95;;
78372;SDS011;67656;52.074;4.758;2024-03-17T11:10:05;9.73;;;5.18;;
78372;SDS011;67656;52.074;4.758;2024-03-17T11:20:26;10.15;;;4.85;;
78372;SDS011;67656;52.074;4.758;2024-03-17T11:30:44;8.02;;;4.03;;
78372;SDS011;67656;52.074;4.758;2024-03-17T11:35:48;10.57;;;4.60;;
78372;SDS011;67656;52.074;4.758;2024-03-17T11:40:49;10.60;;;4.43;;
78372;SDS011;67656;52.074;4.758;2024-03-17T11:45:54;10.27;;;5.00;;
78372;SDS011;67656;52.074;4.758;2024-03-17T11:50:55;10.52;;;4.88;;
78372;SDS011;67656;52.074;4.758;2024-03-17T11:55:55;11.20;;;5.35;;
78372;SDS011;67656;52.074;4.758;2024-03-17T12:00:56;10.77;;;4.90;;
78372;SDS011;67656;52.074;4.758;2024-03-17T12:05:56;11.60;;;5.70;;
78372;SDS011;67656;52.074;4.758;2024-03-17T12:10:57;11.80;;;5.20;;
78372;SDS011;67656;52.074;4.758;2024-03-17T12:16:10;8.52;;;4.43;;
78372;SDS011;67656;52.074;4.758;2024-03-17T12:26:15;9.10;;;4.18;;
78372;SDS011;67656;52.074;4.758;2024-03-17T12:31:16;7.97;;;3.70;;
78372;SDS011;67656;52.074;4.758;2024-03-17T12:36:17;11.55;;;4.00;;
78372;SDS011;67656;52.074;4.758;2024-03-17T12:41:17;8.55;;;3.65;;
78372;SDS011;67656;52.074;4.758;2024-03-17T12:46:18;6.40;;;3.67;;
78372;SDS011;67656;52.074;4.758;2024-03-17T12:51:21;10.00;;;3.63;;
78372;SDS011;67656;52.074;4.758;2024-03-17T12:56:24;7.20;;;3.33;;
78372;SDS011;67656;52.074;4.758;2024-03-17T13:01:24;8.40;;;3.92;;
78372;SDS011;67656;52.074;4.758;2024-03-17T13:06:25;10.55;;;4.32;;
78372;SDS011;67656;52.074;4.758;2024-03-17T13:11:25;7.55;;;4.03;;
78372;SDS011;67656;52.074;4.758;2024-03-17T13:16:26;7.82;;;4.07;;
78372;SDS011;67656;52.074;4.758;2024-03-17T13:21:26;10.00;;;4.07;;
78372;SDS011;67656;52.074;4.758;2024-03-17T13:26:27;7.43;;;3.75;;
78372;SDS011;67656;52.074;4.758;2024-03-17T13:31:27;10.00;;;3.92;;
78372;SDS011;67656;52.074;4.758;2024-03-17T13:36:28;7.10;;;3.92;;
78372;SDS011;67656;52.074;4.758;2024-03-17T13:41:28;6.50;;;3.42;;
78372;SDS011;67656;52.074;4.758;2024-03-17T13:46:29;8.30;;;3.30;;
78372;SDS011;67656;52.074;4.758;2024-03-17T13:51:33;6.80;;;2.85;;
78372;SDS011;67656;52.074;4.758;2024-03-17T13:56:33;6.35;;;2.72;;
78372;SDS011;67656;52.074;4.758;2024-03-17T14:01:34;6.22;;;2.45;;
78372;SDS011;67656;52.074;4.758;2024-03-17T14:06:34;8.48;;;3.35;;
78372;SDS011;67656;52.074;4.758;2024-03-17T14:11:35;7.60;;;3.30;;
78372;SDS011;67656;52.074;4.758;2024-03-17T14:16:36;8.40;;;3.13;;
78372;SDS011;67656;52.074;4.758;2024-03-17T14:21:36;7.95;;;3.60;;
78372;SDS011;67656;52.074;4.758;2024-03-17T14:26:37;8.45;;;2.97;;
78372;SDS011;67656;52.074;4.758;2024-03-17T14:31:37;9.82;;;2.92;;
78372;SDS011;67656;52.074;4.758;2024-03-17T14:36:37;9.02;;;3.72;;
78372;SDS011;67656;52.074;4.758;2024-03-17T14:41:38;7.82;;;3.20;;
78372;SDS011;67656;52.074;4.758;2024-03-17T14:46:38;6.60;;;3.30;;
78372;SDS011;67656;52.074;4.758;2024-03-17T14:51:39;10.57;;;3.75;;
78372;SDS011;67656;52.074;4.758;2024-03-17T14:56:39;8.02;;;3.80;;
78372;SDS011;67656;52.074;4.758;2024-03-17T15:01:41;9.40;;;3.88;;
78372;SDS011;67656;52.074;4.758;2024-03-17T15:06:41;9.20;;;3.97;;
78372;SDS011;67656;52.074;4.758;2024-03-17T15:11:42;11.18;;;4.00;;
78372;SDS011;67656;52.074;4.758;2024-03-17T15:16:42;9.13;;;3.88;;
78372;SDS011;67656;52.074;4.758;2024-03-17T15:21:43;7.82;;;4.00;;
78372;SDS011;67656;52.074;4.758;2024-03-17T15:26:45;7.63;;;3.53;;
78372;SDS011;67656;52.074;4.758;2024-03-17T15:31:46;10.52;;;3.92;;
78372;SDS011;67656;52.074;4.758;2024-03-17T15:36:46;10.15;;;3.83;;
78372;SDS011;67656;52.074;4.758;2024-03-17T15:41:47;8.95;;;3.53;;
78372;SDS011;67656;52.074;4.758;2024-03-17T15:46:47;10.43;;;4.38;;
78372;SDS011;67656;52.074;4.758;2024-03-17T15:51:48;10.18;;;4.22;;
78372;SDS011;67656;52.074;4.758;2024-03-17T15:56:48;8.05;;;3.80;;
78372;SDS011;67656;52.074;4.758;2024-03-17T16:01:49;9.60;;;3.90;;
78372;SDS011;67656;52.074;4.758;2024-03-17T16:12:18;6.78;;;3.55;;
78372;SDS011;67656;52.074;4.758;2024-03-17T16:17:22;9.60;;;3.90;;
78372;SDS011;67656;52.074;4.758;2024-03-17T16:22:23;7.28;;;3.28;;
78372;SDS011;67656;52.074;4.758;2024-03-17T16:27:26;9.50;;;3.22;;
78372;SDS011;67656;52.074;4.758;2024-03-17T16:32:28;9.15;;;3.92;;
78372;SDS011;67656;52.074;4.758;2024-03-17T16:37:28;9.48;;;3.45;;
78372;SDS011;67656;52.074;4.758;2024-03-17T16:42:29;10.32;;;3.67;;
78372;SDS011;67656;52.074;4.758;2024-03-17T16:47:30;11.10;;;3.85;;
78372;SDS011;67656;52.074;4.758;2024-03-17T16:52:31;15.98;;;6.32;;
78372;SDS011;67656;52.074;4.758;2024-03-17T16:57:32;11.98;;;5.13;;
78372;SDS011;67656;52.074;4.758;2024-03-17T17:02:33;9.02;;;4.57;;
78372;SDS011;67656;52.074;4.758;2024-03-17T17:07:34;8.07;;;4.00;;
78372;SDS011;67656;52.074;4.758;2024-03-17T17:12:34;10.43;;;4.35;;
78372;SDS011;67656;52.074;4.758;2024-03-17T17:17:35;11.25;;;4.28;;
78372;SDS011;67656;52.074;4.758;2024-03-17T17:22:35;11.35;;;4.13;;
78372;SDS011;67656;52.074;4.758;2024-03-17T17:27:36;8.50;;;3.97;;
78372;SDS011;67656;52.074;4.758;2024-03-17T17:32:36;8.20;;;4.07;;
78372;SDS011;67656;52.074;4.758;2024-03-17T17:37:37;7.97;;;3.72;;
78372;SDS011;67656;52.074;4.758;2024-03-17T17:42:37;8.82;;;4.20;;
78372;SDS011;67656;52.074;4.758;2024-03-17T17:47:37;10.05;;;4.03;;
78372;SDS011;67656;52.074;4.758;2024-03-17T17:52:38;10.82;;;4.22;;
78372;SDS011;67656;52.074;4.758;2024-03-17T17:57:38;9.38;;;3.80;;
78372;SDS011;67656;52.074;4.758;2024-03-17T18:02:39;6.72;;;3.72;;
78372;SDS011;67656;52.074;4.758;2024-03-17T18:07:39;8.18;;;4.03;;
78372;SDS011;67656;52.074;4.758;2024-03-17T18:12:39;8.95;;;4.40;;
78372;SDS011;67656;52.074;4.758;2024-03-17T18:17:40;9.55;;;3.80;;
78372;SDS011;67656;52.074;4.758;2024-03-17T18:22:41;9.77;;;4.00;;
78372;SDS011;67656;52.074;4.758;2024-03-17T18:27:43;7.07;;;3.80;;
78372;SDS011;67656;52.074;4.758;2024-03-17T18:32:44;9.95;;;4.85;;
78372;SDS011;67656;52.074;4.758;2024-03-17T18:37:44;7.85;;;4.35;;
78372;SDS011;67656;52.074;4.758;2024-03-17T18:42:47;11.38;;;4.60;;
78372;SDS011;67656;52.074;4.758;2024-03-17T18:47:49;8.93;;;4.47;;
78372;SDS011;67656;52.074;4.758;2024-03-17T18:52:50;9.57;;;4.95;;
78372;SDS011;67656;52.074;4.758;2024-03-17T18:57:50;12.73;;;4.68;;
78372;SDS011;67656;52.074;4.758;2024-03-17T19:02:53;10.00;;;4.78;;
78372;SDS011;67656;52.074;4.758;2024-03-17T19:07:53;10.30;;;4.43;;
78372;SDS011;67656;52.074;4.758;2024-03-17T19:12:54;11.80;;;5.00;;
78372;SDS011;67656;52.074;4.758;2024-03-17T19:17:55;10.55;;;4.40;;
78372;SDS011;67656;52.074;4.758;2024-03-17T19:22:55;13.02;;;4.68;;
78372;SDS011;67656;52.074;4.758;2024-03-17T19:27:56;11.43;;;3.97;;
78372;SDS011;67656;52.074;4.758;2024-03-17T19:32:56;9.70;;;4.25;;
78372;SDS011;67656;52.074;4.758;2024-03-17T19:37:57;14.45;;;5.40;;
78372;SDS011;67656;52.074;4.758;2024-03-17T19:42:57;12.10;;;4.90;;
78372;SDS011;67656;52.074;4.758;2024-03-17T19:47:58;11.85;;;4.32;;
78372;SDS011;67656;52.074;4.758;2024-03-17T19:52:58;12.98;;;4.47;;
78372;SDS011;67656;52.074;4.758;2024-03-17T19:57:59;10.07;;;4.47;;
78372;SDS011;67656;52.074;4.758;2024-03-17T20:02:59;9.63;;;4.82;;
78372;SDS011;67656;52.074;4.758;2024-03-17T20:08:00;10.10;;;4.90;;
78372;SDS011;67656;52.074;4.758;2024-03-17T20:13:01;11.38;;;4.82;;
78372;SDS011;67656;52.074;4.758;2024-03-17T20:18:01;15.23;;;5.93;;
78372;SDS011;67656;52.074;4.758;2024-03-17T20:23:02;11.60;;;5.15;;
78372;SDS011;67656;52.074;4.758;2024-03-17T20:28:02;16.55;;;5.05;;
78372;SDS011;67656;52.074;4.758;2024-03-17T20:33:03;12.30;;;5.03;;
78372;SDS011;67656;52.074;4.758;2024-03-17T20:38:04;13.07;;;5.85;;
78372;SDS011;67656;52.074;4.758;2024-03-17T20:43:06;16.08;;;5.85;;
78372;SDS011;67656;52.074;4.758;2024-03-17T20:48:06;12.68;;;6.13;;
78372;SDS011;67656;52.074;4.758;2024-03-17T20:53:07;13.55;;;5.85;;
78372;SDS011;67656;52.074;4.758;2024-03-17T20:58:07;16.00;;;6.78;;
78372;SDS011;67656;52.074;4.758;2024-03-17T21:03:12;13.52;;;6.47;;
78372;SDS011;67656;52.074;4.758;2024-03-17T21:08:22;15.32;;;7.00;;
78372;SDS011;67656;52.074;4.758;2024-03-17T21:13:23;15.05;;;6.97;;
78372;SDS011;67656;52.074;4.758;2024-03-17T21:18:24;15.88;;;7.15;;
78372;SDS011;67656;52.074;4.758;2024-03-17T21:23:24;13.57;;;6.38;;
78372;SDS011;67656;52.074;4.758;2024-03-17T21:28:25;19.38;;;7.15;;
78372;SDS011;67656;52.074;4.758;2024-03-17T21:33:25;16.70;;;7.18;;
78372;SDS011;67656;52.074;4.758;2024-03-17T21:38:26;17.17;;;7.13;;
78372;SDS011;67656;52.074;4.758;2024-03-17T21:43:26;18.63;;;7.32;;
78372;SDS011;67656;52.074;4.758;2024-03-17T21:48:27;18.52;;;7.70;;
78372;SDS011;67656;52.074;4.758;2024-03-17T21:53:27;14.95;;;7.28;;
78372;SDS011;67656;52.074;4.758;2024-03-17T21:58:28;16.20;;;7.82;;
78372;SDS011;67656;52.074;4.758;2024-03-17T22:03:28;18.60;;;7.68;;
78372;SDS011;67656;52.074;4.758;2024-03-17T22:08:29;19.30;;;7.68;;
78372;SDS011;67656;52.074;4.758;2024-03-17T22:13:29;18.38;;;7.68;;
78372;SDS011;67656;52.074;4.758;2024-03-17T22:18:30;20.50;;;8.20;;
78372;SDS011;67656;52.074;4.758;2024-03-17T22:23:31;20.30;;;7.95;;
78372;SDS011;67656;52.074;4.758;2024-03-17T22:28:31;18.13;;;7.95;;
78372;SDS011;67656;52.074;4.758;2024-03-17T22:33:35;18.35;;;7.97;;
78372;SDS011;67656;52.074;4.758;2024-03-17T22:38:36;19.83;;;8.43;;
78372;SDS011;67656;52.074;4.758;2024-03-17T22:43:38;18.70;;;8.30;;
78372;SDS011;67656;52.074;4.758;2024-03-17T22:48:40;23.45;;;8.77;;
78372;SDS011;67656;52.074;4.758;2024-03-17T22:53:42;22.35;;;9.73;;
78372;SDS011;67656;52.074;4.758;2024-03-17T22:58:44;23.92;;;9.77;;
78372;SDS011;67656;52.074;4.758;2024-03-17T23:03:45;24.50;;;9.63;;
78372;SDS011;67656;52.074;4.758;2024-03-17T23:08:45;23.05;;;9.32;;
78372;SDS011;67656;52.074;4.758;2024-03-17T23:13:46;24.80;;;10.73;;
78372;SDS011;67656;52.074;4.758;2024-03-17T23:18:47;28.25;;;10.77;;
78372;SDS011;67656;52.074;4.758;2024-03-17T23:23:47;29.52;;;10.77;;
78372;SDS011;67656;52.074;4.758;2024-03-17T23:28:48;35.28;;;11.55;;
78372;SDS011;67656;52.074;4.758;2024-03-17T23:33:48;31.30;;;11.07;;
78372;SDS011;67656;52.074;4.758;2024-03-17T23:38:51;34.92;;;12.00;;
78372;SDS011;67656;52.074;4.758;2024-03-17T23:43:52;36.58;;;11.10;;
78372;SDS011;67656;52.074;4.758;2024-03-17T23:48:52;42.65;;;13.65;;
78372;SDS011;67656;52.074;4.758;2024-03-17T23:53:53;38.97;;;12.70;;
78372;SDS011;67656;52.074;4.758;2024-03-17T23:58:53;46.15;;;13.35;;
